Scout — WDF8049 — position and weather

sailwx.info

Track history (hours):
 
Tides and Currents Weather Stations Pressure Air Temp Water Temp Dewpoint Dewpoint Depression Visibility Wind Speed Wind Dir Waves Ship Positions

Scout

Owner: Sandbo, Scott E, Portland, OR. More information available from US FCC via Universal Licensing System and Coast Guard Vessel Documentation Center.

Last reported at 2014-Oct-07 00:33 UTC. Time now 2014-Oct-31 16:36 UTC.
Position N 45°38' W 122°42'.
Warning: this ship's position is 24 days out of date.

Length 15 m.

Type: Pleasure craft. MMSI: 367490850.

Date/timePositionNaut miles runAvg speedWind from/ knotsBaromVisibWave heightAir tempDewpointWater temp
2014-Oct-07 00:33N 45°38' W 122°42'2626.2
2014-Oct-06 23:32N 46°03' W 122°53'2622.9
2014-Oct-06 22:24N 46°15' W 123°26'1720.0
2014-Oct-06 21:33N 46°12' W 123°50'2524.4
2014-Oct-06 20:32N 46°25' W 124°21'1515.8
2014-Oct-06 19:33N 46°40' W 124°29'10520.4
2014-Oct-06 14:25N 48°24' W 124°41'4 4.3
2014-Oct-06 13:33N 48°22' W 124°37'0 0.0
2014-Oct-06 04:08N 48°22' W 124°37'0 0.0
2014-Oct-06 03:32N 48°22' W 124°37'0 0.0
2014-Oct-06 02:32N 48°22' W 124°37'0 0.0
2014-Oct-06 01:32N 48°22' W 124°37'0 0.3
2014-Oct-06 00:33N 48°22' W 124°37'  
Track history (hours):
 
Tides and Currents Weather Stations Pressure Air Temp Water Temp Dewpoint Dewpoint Depression Visibility Wind Speed Wind Dir Waves Ship Positions

Scout

Owner: Sandbo, Scott E, Portland, OR. More information available from US FCC via Universal Licensing System and Coast Guard Vessel Documentation Center.

Last reported at 2014-Oct-07 00:33 UTC. Time now 2014-Oct-31 16:36 UTC.
Position N 45°38' W 122°42'.
Warning: this ship's position is 24 days out of date.

Length 15 m.

Type: Pleasure craft. MMSI: 367490850.

Date/timePositionNaut miles runAvg speedWind from/ knotsBaromVisibWave heightAir tempDewpointWater temp
2014-Oct-07 00:33N 45°38' W 122°42'2626.2
2014-Oct-06 23:32N 46°03' W 122°53'2622.9
2014-Oct-06 22:24N 46°15' W 123°26'1720.0
2014-Oct-06 21:33N 46°12' W 123°50'2524.4
2014-Oct-06 20:32N 46°25' W 124°21'1515.8
2014-Oct-06 19:33N 46°40' W 124°29'10520.4
2014-Oct-06 14:25N 48°24' W 124°41'4 4.3
2014-Oct-06 13:33N 48°22' W 124°37'0 0.0
2014-Oct-06 04:08N 48°22' W 124°37'0 0.0
2014-Oct-06 03:32N 48°22' W 124°37'0 0.0
2014-Oct-06 02:32N 48°22' W 124°37'0 0.0
2014-Oct-06 01:32N 48°22' W 124°37'0 0.3
2014-Oct-06 00:33N 48°22' W 124°37'  

Dump ship's entire track history